Time;durP1;ratioP1;P1;durP2;ratioP2;P2;SDS_P1;SDS_P2;PMS_P1;PMS_P2;Temp;Humidity;BMP_temperature;BMP_pressure;BME280_temperature;BME280_humidity;BME280_pressure;Samples;Min_cycle;Max_cycle;Signal;HPM_P1;HPM_P2
2022/01/31 00:01:51;;;;;;;9.38;3.10;;;;;;;;;;4996714;28;20181;-59
2022/01/31 00:04:18;;;;;;;12.98;3.05;;;;;;;;;;5003102;28;20054;-60
2022/01/31 00:06:48;;;;;;;13.23;3.15;;;;;;;;;;4987229;28;20062;-60
2022/01/31 00:09:16;;;;;;;12.38;3.67;;;;;;;;;;5000422;28;20522;-60
2022/01/31 00:11:45;;;;;;;17.42;4.35;;;;;;;;;;4989488;28;20144;-60
2022/01/31 00:14:27;;;;;;;15.20;3.83;;;;;;;;;;4996860;28;20055;-59
2022/01/31 00:16:56;;;;;;;12.23;3.58;;;;;;;;;;5002703;28;20058;-58
2022/01/31 00:19:23;;;;;;;12.23;2.90;;;;;;;;;;4996754;28;20050;-54
2022/01/31 00:21:51;;;;;;;21.80;3.47;;;;;;;;;;4987787;28;20053;-59
2022/01/31 00:24:18;;;;;;;8.18;2.50;;;;;;;;;;4979916;28;20136;-58
2022/01/31 00:26:44;;;;;;;11.18;3.38;;;;;;;;;;4986080;28;20396;-58
2022/01/31 00:29:11;;;;;;;13.15;3.17;;;;;;;;;;5002782;28;20415;-57
2022/01/31 00:31:38;;;;;;;17.30;3.38;;;;;;;;;;4998044;28;20165;-57
2022/01/31 00:34:04;;;;;;;12.30;3.38;;;;;;;;;;4985803;28;20058;-59
2022/01/31 00:36:31;;;;;;;9.95;3.05;;;;;;;;;;4980277;28;20058;-56
2022/01/31 00:38:59;;;;;;;11.02;3.50;;;;;;;;;;5003220;28;20136;-59
2022/01/31 00:41:26;;;;;;;17.42;3.70;;;;;;;;;;4996894;28;20054;-57
2022/01/31 00:44:00;;;;;;;15.95;3.28;;;;;;;;;;4985940;28;20055;-57
2022/01/31 00:46:33;;;;;;;16.50;3.40;;;;;;;;;;4981653;28;21656;-58
2022/01/31 00:48:59;;;;;;;12.88;3.08;;;;;;;;;;4985783;28;20112;-57
2022/01/31 00:51:26;;;;;;;12.88;3.55;;;;;;;;;;5002145;28;20469;-58
2022/01/31 00:53:56;;;;;;;11.80;3.33;;;;;;;;;;4995891;28;20118;-59
2022/01/31 00:56:24;;;;;;;9.57;3.33;;;;;;;;;;5000908;28;20050;-57
2022/01/31 00:58:51;;;;;;;11.82;3.03;;;;;;;;;;4983672;28;20050;-58
2022/01/31 01:01:18;;;;;;;19.65;3.42;;;;;;;;;;4989820;28;20060;-58
2022/01/31 01:03:45;;;;;;;12.30;3.10;;;;;;;;;;4984118;28;20061;-54
2022/01/31 01:06:11;;;;;;;11.32;3.20;;;;;;;;;;5006713;28;20068;-57
2022/01/31 01:08:38;;;;;;;16.00;3.83;;;;;;;;;;4984887;28;20048;-58
2022/01/31 01:11:05;;;;;;;11.93;2.88;;;;;;;;;;4990463;28;20112;-55
2022/01/31 01:13:34;;;;;;;13.55;3.17;;;;;;;;;;4983532;28;20101;-52
2022/01/31 01:16:01;;;;;;;15.10;3.13;;;;;;;;;;4989612;28;20062;-58
2022/01/31 01:18:28;;;;;;;14.85;3.40;;;;;;;;;;4984729;28;20073;-58
2022/01/31 01:20:54;;;;;;;15.65;3.40;;;;;;;;;;4989898;28;20125;-56
2022/01/31 01:23:21;;;;;;;13.90;3.20;;;;;;;;;;4984499;28;20116;-58
2022/01/31 01:25:49;;;;;;;13.13;3.20;;;;;;;;;;5004774;28;20177;-58
2022/01/31 01:28:15;;;;;;;15.65;3.35;;;;;;;;;;5000481;28;20086;-55
2022/01/31 01:30:43;;;;;;;15.20;3.42;;;;;;;;;;4989971;28;20058;-56
2022/01/31 01:33:17;;;;;;;15.45;3.17;;;;;;;;;;4990796;28;20058;-57
2022/01/31 01:35:47;;;;;;;11.40;3.60;;;;;;;;;;5004415;28;20197;-58
2022/01/31 01:38:16;;;;;;;13.00;3.47;;;;;;;;;;5007825;28;20066;-56
2022/01/31 01:40:42;;;;;;;16.58;3.38;;;;;;;;;;4986116;28;20129;-59
2022/01/31 01:43:10;;;;;;;21.77;3.05;;;;;;;;;;4991027;28;20084;-55
2022/01/31 01:45:36;;;;;;;19.02;3.17;;;;;;;;;;4999689;28;20067;-59
2022/01/31 01:48:06;;;;;;;10.45;2.70;;;;;;;;;;4989320;28;20109;-56
2022/01/31 01:50:34;;;;;;;14.05;3.17;;;;;;;;;;4999455;28;20054;-59
2022/01/31 01:53:01;;;;;;;12.10;2.97;;;;;;;;;;4988543;28;20050;-58
2022/01/31 01:55:30;;;;;;;14.93;3.33;;;;;;;;;;4982069;28;20054;-59
2022/01/31 01:57:57;;;;;;;12.25;2.97;;;;;;;;;;4988250;28;20100;-59
2022/01/31 02:00:26;;;;;;;12.30;3.25;;;;;;;;;;4983166;28;20061;-58
2022/01/31 02:02:55;;;;;;;12.25;3.17;;;;;;;;;;4988021;28;20110;-59
2022/01/31 02:05:23;;;;;;;10.13;2.58;;;;;;;;;;4982072;28;20082;-59
2022/01/31 02:07:50;;;;;;;;;;;;;;;;;;4988690;28;20056;-59
2022/01/31 02:10:17;;;;;;;8.93;2.55;;;;;;;;;;4998239;28;19968;-57
2022/01/31 02:12:46;;;;;;;13.43;3.00;;;;;;;;;;5004170;28;20050;-60
2022/01/31 02:15:13;;;;;;;8.55;2.90;;;;;;;;;;4982645;28;20331;-59
2022/01/31 02:17:40;;;;;;;10.48;2.85;;;;;;;;;;4988667;28;20112;-55
2022/01/31 02:20:08;;;;;;;13.38;2.60;;;;;;;;;;4985247;28;20070;-58
2022/01/31 02:22:36;;;;;;;16.60;2.72;;;;;;;;;;5003144;28;20061;-55
2022/01/31 02:25:03;;;;;;;10.60;2.40;;;;;;;;;;4986907;28;20122;-55
2022/01/31 02:27:31;;;;;;;7.57;2.00;;;;;;;;;;4982650;28;20050;-56
2022/01/31 02:29:57;;;;;;;10.30;2.72;;;;;;;;;;5003924;28;20129;-56
2022/01/31 02:32:27;;;;;;;11.38;2.75;;;;;;;;;;4998309;28;20061;-57
2022/01/31 02:34:54;;;;;;;9.35;2.50;;;;;;;;;;4988475;28;20066;-58
2022/01/31 02:37:21;;;;;;;9.20;2.20;;;;;;;;;;4982828;28;20054;-58
2022/01/31 02:39:49;;;;;;;8.23;1.92;;;;;;;;;;4988576;28;20061;-55
2022/01/31 02:42:16;;;;;;;8.88;2.15;;;;;;;;;;4981706;28;20054;-55
2022/01/31 02:44:43;;;;;;;10.18;2.30;;;;;;;;;;4987263;28;20117;-54
2022/01/31 02:47:14;;;;;;;11.43;2.58;;;;;;;;;;4981739;28;20058;-54
2022/01/31 02:49:48;;;;;;;10.27;2.10;;;;;;;;;;4988553;28;20054;-54
2022/01/31 02:52:15;;;;;;;8.43;2.20;;;;;;;;;;4982093;28;20062;-54
2022/01/31 02:54:42;;;;;;;7.28;2.35;;;;;;;;;;4987441;28;20046;-51
2022/01/31 02:57:10;;;;;;;7.93;1.90;;;;;;;;;;4982375;28;20050;-61
2022/01/31 02:59:37;;;;;;;12.27;2.50;;;;;;;;;;5002924;28;20090;-53
2022/01/31 03:02:04;;;;;;;5.82;2.08;;;;;;;;;;4979898;28;20054;-52
2022/01/31 03:04:30;;;;;;;8.60;1.95;;;;;;;;;;5004608;28;20046;-51
2022/01/31 03:06:57;;;;;;;9.65;2.08;;;;;;;;;;4985967;28;20058;-59
2022/01/31 03:09:23;;;;;;;8.50;1.60;;;;;;;;;;5004090;28;20145;-55
2022/01/31 03:11:50;;;;;;;9.75;1.65;;;;;;;;;;5006721;28;20042;-58
2022/01/31 03:14:19;;;;;;;10.38;1.92;;;;;;;;;;4999567;28;20113;-52
2022/01/31 03:16:47;;;;;;;12.43;1.60;;;;;;;;;;4988334;28;20054;-54
2022/01/31 03:19:14;;;;;;;8.30;1.85;;;;;;;;;;4982858;28;20073;-58
2022/01/31 03:21:41;;;;;;;12.40;1.80;;;;;;;;;;4988766;28;20066;-56
2022/01/31 03:24:08;;;;;;;9.18;1.52;;;;;;;;;;4982312;28;20141;-59
2022/01/31 03:26:34;;;;;;;12.88;1.50;;;;;;;;;;4987840;28;20054;-53
2022/01/31 03:29:01;;;;;;;9.38;1.60;;;;;;;;;;4999335;28;20064;-56
2022/01/31 03:31:29;;;;;;;9.45;1.30;;;;;;;;;;4989343;28;20050;-56
2022/01/31 03:33:59;;;;;;;10.70;1.80;;;;;;;;;;4981781;28;20062;-55
2022/01/31 03:36:26;;;;;;;29.35;1.85;;;;;;;;;;4988505;28;20124;-56
2022/01/31 03:38:53;;;;;;;10.25;1.50;;;;;;;;;;4983042;28;20046;-57
2022/01/31 03:41:20;;;;;;;10.20;1.25;;;;;;;;;;4988040;28;20054;-57
2022/01/31 03:43:50;;;;;;;6.53;1.48;;;;;;;;;;4981163;28;20169;-58
2022/01/31 03:46:17;;;;;;;11.85;1.75;;;;;;;;;;5003120;28;20113;-52
2022/01/31 03:48:45;;;;;;;5.38;1.40;;;;;;;;;;4997648;28;20057;-57
2022/01/31 03:51:12;;;;;;;13.50;1.52;;;;;;;;;;4986504;28;20054;-55
2022/01/31 03:53:39;;;;;;;13.85;1.40;;;;;;;;;;4987293;28;20060;-57
2022/01/31 03:56:06;;;;;;;14.65;1.60;;;;;;;;;;4981119;28;20042;-56
2022/01/31 03:58:32;;;;;;;7.38;1.00;;;;;;;;;;4987140;28;20050;-51
2022/01/31 04:00:59;;;;;;;9.85;1.20;;;;;;;;;;4981254;28;20062;-56
2022/01/31 04:03:25;;;;;;;11.00;1.23;;;;;;;;;;5003037;28;20062;-58
2022/01/31 04:05:53;;;;;;;13.80;1.52;;;;;;;;;;4980841;28;20061;-53
2022/01/31 04:08:20;;;;;;;6.90;1.63;;;;;;;;;;5003678;28;20136;-56
2022/01/31 04:10:46;;;;;;;15.00;1.63;;;;;;;;;;4981527;28;20116;-50
2022/01/31 04:13:18;;;;;;;5.05;0.45;;;;;;;;;;4985960;28;20058;-55
2022/01/31 04:15:45;;;;;;;10.00;1.27;;;;;;;;;;4997226;28;20058;-51
2022/01/31 04:18:11;;;;;;;13.98;1.50;;;;;;;;;;5003668;28;20060;-59
2022/01/31 04:20:38;;;;;;;20.42;1.85;;;;;;;;;;4981064;28;20057;-53
2022/01/31 04:23:10;;;;;;;3.22;1.20;;;;;;;;;;5002960;28;20050;-56
2022/01/31 04:25:46;;;;;;;9.73;1.92;;;;;;;;;;4980889;28;20161;-59
2022/01/31 04:28:20;;;;;;;18.50;1.50;;;;;;;;;;4987499;28;20069;-56
2022/01/31 04:30:53;;;;;;;11.48;1.60;;;;;;;;;;4981625;28;20054;-53
2022/01/31 04:33:20;;;;;;;13.15;1.20;;;;;;;;;;4990075;28;20062;-56
2022/01/31 04:35:47;;;;;;;13.95;1.70;;;;;;;;;;4985855;28;20136;-57
2022/01/31 04:38:15;;;;;;;7.05;1.50;;;;;;;;;;4993354;28;20055;-57
2022/01/31 04:40:42;;;;;;;10.38;1.45;;;;;;;;;;4987727;28;20136;-58
2022/01/31 04:43:09;;;;;;;9.68;1.30;;;;;;;;;;4992367;28;20393;-60
2022/01/31 04:45:36;;;;;;;9.25;2.10;;;;;;;;;;4990323;28;20050;-54
2022/01/31 04:48:02;;;;;;;11.73;1.77;;;;;;;;;;4985097;28;20046;-59
2022/01/31 04:50:29;;;;;;;13.70;1.15;;;;;;;;;;4990875;28;20061;-60
2022/01/31 04:52:56;;;;;;;14.80;1.50;;;;;;;;;;4983878;28;20061;-57
2022/01/31 04:55:24;;;;;;;9.75;1.38;;;;;;;;;;4989590;28;20050;-59
2022/01/31 04:57:50;;;;;;;12.57;1.33;;;;;;;;;;4983132;28;20148;-58
2022/01/31 05:00:17;;;;;;;15.13;1.58;;;;;;;;;;5006082;28;20301;-59
2022/01/31 05:02:44;;;;;;;7.47;1.58;;;;;;;;;;4999571;28;20064;-60
2022/01/31 05:05:11;;;;;;;18.25;1.23;;;;;;;;;;4989396;28;20154;-55
2022/01/31 05:07:37;;;;;;;13.57;1.50;;;;;;;;;;4984903;28;20050;-57
2022/01/31 05:10:04;;;;;;;13.15;1.70;;;;;;;;;;4989781;28;20562;-57
2022/01/31 05:12:34;;;;;;;17.38;1.70;;;;;;;;;;4999748;28;20053;-56
2022/01/31 05:15:01;;;;;;;12.77;2.35;;;;;;;;;;4988339;28;20054;-56
2022/01/31 05:17:27;;;;;;;7.85;1.20;;;;;;;;;;4984130;28;20503;-56
2022/01/31 05:19:54;;;;;;;13.30;1.80;;;;;;;;;;4990938;28;20070;-58
2022/01/31 05:22:21;;;;;;;11.13;1.55;;;;;;;;;;5001253;28;20104;-57
2022/01/31 05:24:47;;;;;;;6.22;1.10;;;;;;;;;;4989019;28;20132;-58
2022/01/31 05:27:14;;;;;;;8.77;1.52;;;;;;;;;;4989394;28;20405;-58
2022/01/31 05:29:42;;;;;;;11.65;1.17;;;;;;;;;;4983293;28;20050;-56
2022/01/31 05:32:09;;;;;;;23.93;1.73;;;;;;;;;;4990524;28;20078;-55
2022/01/31 05:34:35;;;;;;;15.30;1.75;;;;;;;;;;4985101;28;21027;-57
2022/01/31 05:37:02;;;;;;;10.23;1.50;;;;;;;;;;5006807;28;20054;-58
2022/01/31 05:39:29;;;;;;;15.13;1.70;;;;;;;;;;4984140;28;20061;-52
2022/01/31 05:41:56;;;;;;;12.55;1.75;;;;;;;;;;4988917;28;20069;-55
2022/01/31 05:44:23;;;;;;;5.60;0.65;;;;;;;;;;4980689;28;20055;-57
2022/01/31 05:46:51;;;;;;;13.63;1.35;;;;;;;;;;5002963;28;20057;-57
2022/01/31 05:49:18;;;;;;;5.07;1.08;;;;;;;;;;4998483;28;20066;-53
2022/01/31 05:51:49;;;;;;;9.70;1.63;;;;;;;;;;4987569;28;20113;-57
2022/01/31 05:54:15;;;;;;;9.00;0.93;;;;;;;;;;4981452;28;20061;-56
2022/01/31 05:56:42;;;;;;;6.03;1.00;;;;;;;;;;4987124;28;20062;-55
2022/01/31 05:59:08;;;;;;;8.45;1.20;;;;;;;;;;4980215;28;20150;-55
2022/01/31 06:01:38;;;;;;;12.52;1.08;;;;;;;;;;4987514;28;20050;-56
2022/01/31 06:04:06;;;;;;;6.45;0.93;;;;;;;;;;4981993;28;20058;-53
2022/01/31 06:06:33;;;;;;;6.45;1.20;;;;;;;;;;4988459;28;20042;-57
2022/01/31 06:09:02;;;;;;;8.40;1.13;;;;;;;;;;4989187;28;20074;-56
2022/01/31 06:11:30;;;;;;;9.63;1.13;;;;;;;;;;5005070;28;20058;-59
2022/01/31 06:13:59;;;;;;;;;;;;;;;;;;5003013;28;20444;-55
2022/01/31 06:16:26;;;;;;;18.55;3.03;;;;;;;;;;4997135;28;19925;-51
2022/01/31 06:18:52;;;;;;;3.95;0.88;;;;;;;;;;4987333;28;20058;-56
2022/01/31 06:21:21;;;;;;;5.97;1.10;;;;;;;;;;4981296;28;20073;-55
2022/01/31 06:23:47;;;;;;;13.10;2.10;;;;;;;;;;4986657;28;20150;-52
2022/01/31 06:26:14;;;;;;;11.52;2.33;;;;;;;;;;4980966;28;20050;-56
2022/01/31 06:28:41;;;;;;;13.38;2.08;;;;;;;;;;5003219;28;20145;-56
2022/01/31 06:31:07;;;;;;;11.73;1.90;;;;;;;;;;4980118;28;20050;-56
2022/01/31 06:33:35;;;;;;;13.68;1.13;;;;;;;;;;4986231;28;20078;-58
2022/01/31 06:36:02;;;;;;;13.95;3.22;;;;;;;;;;4981189;28;20267;-54
2022/01/31 06:38:35;;;;;;;13.63;1.70;;;;;;;;;;5001798;28;20125;-58
2022/01/31 06:41:01;;;;;;;18.52;2.65;;;;;;;;;;4997902;28;20058;-57
2022/01/31 06:43:30;;;;;;;15.02;1.73;;;;;;;;;;4987026;28;20117;-58
2022/01/31 06:45:56;;;;;;;;;;;;;;;;;;4981794;28;20141;-54
2022/01/31 06:48:23;;;;;;;9.85;2.00;;;;;;;;;;4987871;28;19925;-53
2022/01/31 06:50:49;;;;;;;9.52;1.33;;;;;;;;;;4981965;28;20060;-55
2022/01/31 06:53:25;;;;;;;8.77;1.17;;;;;;;;;;5004234;28;20061;-57
2022/01/31 06:55:53;;;;;;;9.38;1.45;;;;;;;;;;4983097;28;20054;-58
2022/01/31 06:58:20;;;;;;;14.13;1.65;;;;;;;;;;5003191;28;20050;-58
2022/01/31 07:00:47;;;;;;;2.40;0.57;;;;;;;;;;4988456;28;20117;-58
2022/01/31 07:03:14;;;;;;;10.07;1.45;;;;;;;;;;4998259;28;20070;-55
2022/01/31 07:05:41;;;;;;;9.15;1.15;;;;;;;;;;5004191;28;20054;-53
2022/01/31 07:08:08;;;;;;;15.48;1.27;;;;;;;;;;4982495;28;20054;-56
2022/01/31 07:10:34;;;;;;;15.98;1.85;;;;;;;;;;4987739;28;20516;-54
2022/01/31 07:13:03;;;;;;;8.38;1.17;;;;;;;;;;4982674;28;20113;-55
2022/01/31 07:15:30;;;;;;;5.60;1.08;;;;;;;;;;4987513;28;20104;-53
2022/01/31 07:17:56;;;;;;;7.07;1.08;;;;;;;;;;4998097;28;20492;-54
2022/01/31 07:20:34;;;;;;;16.05;1.52;;;;;;;;;;5004654;28;20058;-55
2022/01/31 07:23:04;;;;;;;8.63;1.40;;;;;;;;;;4980983;28;20054;-55
2022/01/31 07:25:35;;;;;;;6.35;1.38;;;;;;;;;;5001691;28;20081;-58
2022/01/31 07:28:04;;;;;;;15.38;1.73;;;;;;;;;;4980935;28;20054;-57
2022/01/31 07:30:34;;;;;;;16.17;1.95;;;;;;;;;;4987292;28;20050;-56
2022/01/31 07:33:01;;;;;;;11.02;1.52;;;;;;;;;;4980028;28;20105;-57
2022/01/31 07:35:27;;;;;;;8.05;1.60;;;;;;;;;;4987792;28;20086;-57
2022/01/31 07:37:54;;;;;;;10.05;1.58;;;;;;;;;;4983463;28;20081;-56
2022/01/31 07:40:20;;;;;;;7.22;1.30;;;;;;;;;;5005386;28;20055;-56
2022/01/31 07:42:49;;;;;;;7.10;0.90;;;;;;;;;;4999456;28;20058;-58
2022/01/31 07:45:15;;;;;;;;;;;;;;;;;;5003879;28;20062;-52
2022/01/31 07:47:44;;;;;;;9.50;1.30;;;;;;;;;;5003169;28;19925;-55
2022/01/31 07:50:11;;;;;;;;;;;;;;;;;;4980795;28;20080;-53
2022/01/31 07:52:39;;;;;;;15.35;1.25;;;;;;;;;;4986361;28;20474;-52
2022/01/31 07:55:06;;;;;;;14.02;2.00;;;;;;;;;;4997637;28;20062;-55
2022/01/31 07:57:33;;;;;;;16.65;1.67;;;;;;;;;;4986880;28;20134;-57
2022/01/31 08:00:01;;;;;;;13.68;1.73;;;;;;;;;;4981106;28;20053;-51
2022/01/31 08:02:27;;;;;;;22.42;2.08;;;;;;;;;;4986225;28;20142;-57
2022/01/31 08:04:55;;;;;;;11.10;1.58;;;;;;;;;;4994347;28;20137;-54
2022/01/31 08:07:22;;;;;;;20.87;1.73;;;;;;;;;;4978146;28;20049;-56
2022/01/31 08:09:49;;;;;;;15.45;1.42;;;;;;;;;;4980548;28;20313;-58
2022/01/31 08:12:25;;;;;;;9.40;1.48;;;;;;;;;;4986845;28;20056;-58
2022/01/31 08:14:51;;;;;;;9.00;1.20;;;;;;;;;;4980362;28;20054;-57
2022/01/31 08:17:18;;;;;;;8.10;1.38;;;;;;;;;;4986254;28;20132;-56
2022/01/31 08:19:45;;;;;;;13.93;1.92;;;;;;;;;;4980964;28;20069;-55
2022/01/31 08:22:13;;;;;;;9.95;1.42;;;;;;;;;;5002769;28;20061;-56
2022/01/31 08:24:40;;;;;;;13.90;2.30;;;;;;;;;;4994201;28;20139;-56
2022/01/31 08:27:06;;;;;;;12.90;1.48;;;;;;;;;;5002304;28;20112;-58
2022/01/31 08:29:36;;;;;;;15.48;2.33;;;;;;;;;;4981472;28;20514;-55
2022/01/31 08:32:06;;;;;;;24.98;2.17;;;;;;;;;;4986745;28;20072;-56
2022/01/31 08:37:15;;;;;;;9.43;1.63;;;;;;;;;;4985581;28;20050;-57
2022/01/31 08:39:42;;;;;;;21.45;2.58;;;;;;;;;;4986425;28;20157;-53
2022/01/31 08:42:11;;;;;;;13.88;1.95;;;;;;;;;;4980687;28;20055;-54
2022/01/31 08:44:38;;;;;;;18.88;2.42;;;;;;;;;;4986457;28;20069;-57
2022/01/31 08:47:05;;;;;;;9.43;1.23;;;;;;;;;;4981059;28;20054;-57
2022/01/31 08:49:35;;;;;;;18.13;2.53;;;;;;;;;;4986691;28;20042;-56
2022/01/31 08:52:02;;;;;;;14.93;1.60;;;;;;;;;;4997474;28;20058;-55
2022/01/31 08:54:30;;;;;;;15.57;2.63;;;;;;;;;;4985920;28;20105;-54
2022/01/31 08:56:57;;;;;;;9.18;1.50;;;;;;;;;;4996394;28;20054;-57
2022/01/31 08:59:25;;;;;;;15.70;2.05;;;;;;;;;;4986834;28;20054;-56
2022/01/31 09:02:03;;;;;;;20.45;3.65;;;;;;;;;;4976828;28;20145;-57
2022/01/31 09:04:34;;;;;;;17.15;2.15;;;;;;;;;;4983926;28;20058;-54
2022/01/31 09:07:03;;;;;;;17.17;2.67;;;;;;;;;;4978035;28;20061;-55
2022/01/31 09:09:31;;;;;;;17.13;1.98;;;;;;;;;;5002520;28;20145;-52
2022/01/31 09:11:59;;;;;;;14.75;2.05;;;;;;;;;;4980608;28;20129;-55
2022/01/31 09:14:26;;;;;;;33.72;3.00;;;;;;;;;;4985009;28;20042;-58
2022/01/31 09:16:53;;;;;;;31.77;4.75;;;;;;;;;;4979317;28;20046;-57
2022/01/31 09:19:20;;;;;;;16.20;2.00;;;;;;;;;;5003570;28;20058;-57
2022/01/31 09:21:48;;;;;;;23.95;2.80;;;;;;;;;;4998985;28;20111;-57
2022/01/31 09:24:14;;;;;;;19.88;2.85;;;;;;;;;;4988745;28;20120;-58
2022/01/31 09:26:42;;;;;;;29.60;3.63;;;;;;;;;;4987405;28;20111;-50
2022/01/31 09:29:09;;;;;;;25.92;2.92;;;;;;;;;;4986404;28;20054;-56
2022/01/31 09:31:36;;;;;;;32.30;3.05;;;;;;;;;;4986921;28;20062;-57
2022/01/31 09:34:04;;;;;;;24.55;2.67;;;;;;;;;;4973112;28;20061;-55
2022/01/31 09:36:30;;;;;;;30.60;4.10;;;;;;;;;;4988163;28;20140;-55
2022/01/31 09:38:57;;;;;;;20.05;2.38;;;;;;;;;;4980809;28;20058;-52
2022/01/31 09:41:26;;;;;;;13.40;1.85;;;;;;;;;;4986875;28;20081;-53
2022/01/31 09:44:09;;;;;;;;;;;;;;;;;;4982803;28;20070;-57
2022/01/31 09:49:14;;;;;;;11.48;2.28;;;;;;;;;;4998199;28;20061;-53
2022/01/31 09:51:41;;;;;;;18.95;2.60;;;;;;;;;;4988325;28;20058;-55
2022/01/31 09:54:08;;;;;;;20.48;3.10;;;;;;;;;;4997068;28;20125;-56
2022/01/31 09:56:37;;;;;;;15.27;2.78;;;;;;;;;;5003687;28;20137;-55
2022/01/31 09:59:05;;;;;;;21.58;2.88;;;;;;;;;;4998598;28;20065;-55
2022/01/31 10:01:36;;;;;;;18.00;2.15;;;;;;;;;;4988383;28;20285;-54
2022/01/31 10:04:07;;;;;;;19.50;2.92;;;;;;;;;;4980804;28;20054;-53
2022/01/31 10:06:35;;;;;;;18.05;2.30;;;;;;;;;;4986508;28;20050;-51
2022/01/31 10:09:04;;;;;;;18.55;2.15;;;;;;;;;;4981214;28;20057;-54
2022/01/31 10:11:39;;;;;;;;;;;;;;;;;;4987680;28;20452;-54
2022/01/31 10:16:55;;;;;;;9.13;1.90;;;;;;;;;;4987062;28;20085;-55
2022/01/31 10:19:23;;;;;;;20.95;3.22;;;;;;;;;;4980671;28;20050;-57
2022/01/31 10:21:54;;;;;;;29.92;4.72;;;;;;;;;;5002389;28;20069;-52
2022/01/31 10:24:24;;;;;;;41.65;5.43;;;;;;;;;;4979370;28;20523;-54
2022/01/31 10:26:51;;;;;;;20.85;2.90;;;;;;;;;;4987415;28;20042;-55
2022/01/31 10:29:19;;;;;;;13.98;2.20;;;;;;;;;;4980710;28;20054;-55
2022/01/31 10:31:57;;;;;;;41.65;3.05;;;;;;;;;;4985977;28;20050;-56
2022/01/31 10:34:26;;;;;;;17.05;2.67;;;;;;;;;;4982610;28;20063;-55
2022/01/31 10:36:53;;;;;;;39.47;3.22;;;;;;;;;;5003242;28;20065;-56
2022/01/31 10:45:25;;;;;;;35.78;4.28;;;;;;;;;;4996688;28;20058;-54
2022/01/31 10:50:48;;;;;;;29.33;3.58;;;;;;;;;;4997077;28;20050;-57
2022/01/31 10:53:15;;;;;;;31.10;3.92;;;;;;;;;;4986503;28;20054;-56
2022/01/31 10:55:41;;;;;;;30.17;4.07;;;;;;;;;;4980063;28;20057;-56
2022/01/31 10:58:09;;;;;;;23.55;2.35;;;;;;;;;;4999659;28;20046;-58
2022/01/31 11:00:35;;;;;;;23.15;3.60;;;;;;;;;;4996667;28;20057;-58
2022/01/31 11:03:17;;;;;;;24.25;3.30;;;;;;;;;;5002559;28;20096;-57
2022/01/31 11:05:49;;;;;;;20.30;1.92;;;;;;;;;;4979739;28;20054;-53
2022/01/31 11:08:16;;;;;;;22.48;2.67;;;;;;;;;;5002826;28;20138;-58
2022/01/31 11:10:43;;;;;;;16.65;2.92;;;;;;;;;;4986354;28;20116;-58
2022/01/31 11:13:10;;;;;;;18.42;2.25;;;;;;;;;;4981086;28;20081;-56
2022/01/31 11:15:38;;;;;;;22.75;2.70;;;;;;;;;;5002798;28;20518;-56
2022/01/31 11:18:06;;;;;;;20.02;3.00;;;;;;;;;;4994725;28;20057;-55
2022/01/31 11:20:32;;;;;;;21.42;2.83;;;;;;;;;;5002864;28;20062;-56
2022/01/31 11:23:02;;;;;;;22.85;3.00;;;;;;;;;;4980030;28;20070;-57
2022/01/31 11:25:29;;;;;;;28.20;2.85;;;;;;;;;;4986655;28;20061;-58
2022/01/31 11:27:59;;;;;;;16.90;2.70;;;;;;;;;;4997541;28;20089;-58
2022/01/31 11:30:26;;;;;;;15.38;2.10;;;;;;;;;;5004012;28;20054;-58
2022/01/31 11:32:53;;;;;;;14.75;2.15;;;;;;;;;;4980532;28;20230;-59
2022/01/31 11:35:20;;;;;;;17.50;2.67;;;;;;;;;;4987047;28;20077;-55
2022/01/31 11:37:47;;;;;;;25.58;3.75;;;;;;;;;;4997718;28;20046;-56
2022/01/31 11:40:16;;;;;;;23.08;3.25;;;;;;;;;;5003060;28;20054;-55
2022/01/31 11:42:43;;;;;;;17.65;2.25;;;;;;;;;;4981190;28;20100;-58
2022/01/31 11:45:12;;;;;;;14.80;2.65;;;;;;;;;;4986638;28;20061;-54
2022/01/31 11:47:38;;;;;;;18.80;2.47;;;;;;;;;;4980744;28;20132;-53
2022/01/31 11:50:06;;;;;;;16.75;2.00;;;;;;;;;;4987186;28;20058;-52
2022/01/31 11:52:43;;;;;;;9.70;2.00;;;;;;;;;;4997270;28;20050;-55
2022/01/31 11:55:12;;;;;;;14.10;1.75;;;;;;;;;;4986970;28;20050;-57
2022/01/31 11:57:41;;;;;;;25.40;3.28;;;;;;;;;;4999114;28;20101;-55
2022/01/31 12:00:08;;;;;;;13.25;2.33;;;;;;;;;;4984214;28;20050;-52
2022/01/31 12:02:41;;;;;;;29.10;2.38;;;;;;;;;;4983500;28;20069;-51
2022/01/31 12:05:09;;;;;;;11.68;2.17;;;;;;;;;;4997278;28;20105;-52
2022/01/31 12:07:39;;;;;;;26.92;2.63;;;;;;;;;;4985978;28;20058;-55
2022/01/31 12:10:07;;;;;;;7.28;1.20;;;;;;;;;;4980763;28;20046;-52
2022/01/31 12:12:44;;;;;;;23.23;2.55;;;;;;;;;;5003648;28;20056;-53
2022/01/31 12:18:45;;;;;;;27.20;3.60;;;;;;;;;;4907560;29;20099;-58
2022/01/31 12:23:58;;;;;;;24.17;3.75;;;;;;;;;;4997945;28;20046;-53
2022/01/31 12:26:29;;;;;;;13.98;2.03;;;;;;;;;;5003085;28;20054;-56
2022/01/31 12:28:56;;;;;;;14.07;1.95;;;;;;;;;;4982322;28;20089;-55
2022/01/31 12:31:23;;;;;;;24.17;3.47;;;;;;;;;;5004902;28;20073;-58
2022/01/31 12:33:51;;;;;;;29.75;4.10;;;;;;;;;;4987363;28;20050;-53
2022/01/31 12:36:26;;;;;;;21.65;2.50;;;;;;;;;;4997212;28;20054;-52
2022/01/31 12:38:53;;;;;;;17.35;3.42;;;;;;;;;;5002704;28;20051;-52
2022/01/31 12:41:29;;;;;;;27.08;3.53;;;;;;;;;;4981190;28;20519;-54
2022/01/31 12:44:12;;;;;;;21.33;3.75;;;;;;;;;;5002126;28;20137;-52
2022/01/31 12:46:48;;;;;;;23.90;2.63;;;;;;;;;;4980648;28;20061;-51
2022/01/31 12:49:17;;;;;;;30.55;2.97;;;;;;;;;;4987009;28;20315;-55
2022/01/31 12:51:43;;;;;;;;;;;;;;;;;;4996611;28;20060;-55
2022/01/31 12:54:20;;;;;;;24.63;2.85;;;;;;;;;;4988681;28;19926;-55
2022/01/31 12:56:47;;;;;;;26.40;2.65;;;;;;;;;;5000011;28;20057;-53
2022/01/31 12:59:15;;;;;;;33.05;3.47;;;;;;;;;;5006295;28;20061;-53
2022/01/31 13:01:42;;;;;;;24.52;2.83;;;;;;;;;;5000131;28;20050;-54
2022/01/31 13:04:12;;;;;;;37.13;4.53;;;;;;;;;;5006336;28;20108;-55
2022/01/31 13:06:41;;;;;;;28.88;3.13;;;;;;;;;;4983881;28;20125;-57
2022/01/31 13:09:12;;;;;;;24.73;3.45;;;;;;;;;;4989475;28;20054;-52
2022/01/31 13:11:40;;;;;;;28.40;3.00;;;;;;;;;;4975012;28;20058;-48
2022/01/31 13:14:09;;;;;;;33.33;4.75;;;;;;;;;;4991745;28;20065;-55
2022/01/31 13:16:40;;;;;;;25.60;3.40;;;;;;;;;;4993710;28;20073;-55
2022/01/31 13:19:17;;;;;;;25.10;3.20;;;;;;;;;;4989974;28;20062;-57
2022/01/31 13:21:46;;;;;;;7.97;1.42;;;;;;;;;;5000343;28;20181;-56
2022/01/31 13:24:13;;;;;;;22.67;3.65;;;;;;;;;;5004978;28;20097;-54
2022/01/31 13:26:53;;;;;;;21.33;2.80;;;;;;;;;;4982673;28;20045;-56
2022/01/31 13:29:30;;;;;;;15.98;2.13;;;;;;;;;;4990265;28;20061;-54
2022/01/31 13:31:57;;;;;;;20.98;3.20;;;;;;;;;;4983222;28;20043;-52
2022/01/31 13:34:33;;;;;;;31.23;2.83;;;;;;;;;;4989378;28;20062;-54
2022/01/31 13:37:01;;;;;;;25.27;2.72;;;;;;;;;;4982236;28;20325;-53
2022/01/31 13:39:28;;;;;;;20.73;2.53;;;;;;;;;;4990378;28;20134;-58
2022/01/31 13:41:54;;;;;;;35.72;3.78;;;;;;;;;;4983641;28;20054;-53
2022/01/31 13:44:22;;;;;;;45.47;5.47;;;;;;;;;;5005631;28;20121;-58
2022/01/31 13:46:52;;;;;;;32.28;3.47;;;;;;;;;;4986618;28;20568;-53
2022/01/31 13:49:24;;;;;;;28.15;3.70;;;;;;;;;;4988760;28;20508;-57
2022/01/31 13:51:51;;;;;;;31.52;2.88;;;;;;;;;;4988980;28;20054;-55
2022/01/31 13:54:20;;;;;;;30.13;3.28;;;;;;;;;;4985420;28;20082;-58
2022/01/31 13:56:46;;;;;;;;;;;;;;;;;;4989935;28;20078;-59
2022/01/31 13:59:15;;;;;;;20.33;2.70;;;;;;;;;;4984675;28;19930;-58
2022/01/31 14:01:42;;;;;;;27.25;3.75;;;;;;;;;;4990290;28;20109;-58
2022/01/31 14:04:09;;;;;;;46.47;4.93;;;;;;;;;;4983423;28;20149;-55
2022/01/31 14:06:36;;;;;;;30.27;4.10;;;;;;;;;;4988670;28;20061;-57
2022/01/31 14:09:06;;;;;;;40.83;4.60;;;;;;;;;;4998424;28;20069;-54
2022/01/31 14:11:39;;;;;;;19.15;2.60;;;;;;;;;;5004669;28;20082;-57
2022/01/31 14:14:06;;;;;;;21.98;2.78;;;;;;;;;;4981735;28;20062;-57
2022/01/31 14:16:35;;;;;;;21.52;2.53;;;;;;;;;;4988858;28;20046;-59
2022/01/31 14:19:03;;;;;;;24.92;2.72;;;;;;;;;;4983540;28;20077;-53
2022/01/31 14:21:30;;;;;;;28.13;3.83;;;;;;;;;;4982873;28;20641;-57
2022/01/31 14:23:59;;;;;;;21.38;3.10;;;;;;;;;;4982727;28;20058;-57
2022/01/31 14:26:34;;;;;;;25.98;2.45;;;;;;;;;;4988018;28;20112;-58
2022/01/31 14:29:04;;;;;;;24.40;2.72;;;;;;;;;;4982513;28;20074;-54
2022/01/31 14:31:31;;;;;;;23.88;2.65;;;;;;;;;;4989040;28;20050;-56
2022/01/31 14:34:03;;;;;;;21.58;2.97;;;;;;;;;;4983545;28;20500;-55
2022/01/31 14:36:35;;;;;;;18.13;2.92;;;;;;;;;;4989496;28;20050;-53
2022/01/31 14:39:10;;;;;;;17.10;2.03;;;;;;;;;;4982954;28;20088;-57
2022/01/31 14:41:52;;;;;;;16.90;2.75;;;;;;;;;;4988656;28;20081;-57
2022/01/31 14:47:19;;;;;;;26.48;3.30;;;;;;;;;;5005247;28;20148;-56
2022/01/31 14:49:46;;;;;;;20.40;2.10;;;;;;;;;;4982785;28;20103;-56
2022/01/31 14:52:13;;;;;;;12.30;2.20;;;;;;;;;;4987996;28;20054;-54
2022/01/31 14:54:41;;;;;;;29.30;2.97;;;;;;;;;;4981933;28;20046;-53
2022/01/31 14:57:08;;;;;;;24.25;3.63;;;;;;;;;;4988670;28;20050;-55
2022/01/31 14:59:36;;;;;;;10.60;1.30;;;;;;;;;;5004215;28;20053;-56
2022/01/31 15:02:03;;;;;;;9.02;1.70;;;;;;;;;;4998939;28;20046;-57
2022/01/31 15:04:30;;;;;;;26.40;2.63;;;;;;;;;;4988102;28;20054;-53
2022/01/31 15:06:57;;;;;;;15.05;2.13;;;;;;;;;;4981511;28;20061;-60
2022/01/31 15:09:23;;;;;;;18.17;3.15;;;;;;;;;;5004249;28;20146;-57